Latest Weather Observations for Gelantipy

IDV60801

Issued at 2:02 pm EDT Wednesday 1 April 2015 (issued every 30 minutes, with the page automatically refreshed every 10 minutes)

About weather observations | Map of weather stations | Latest weather observations for VIC | Other Formats
Station Details ID: 084142 Name: GELANTIPY Lat: -37.22 Lon: 148.26 Height: 755.0 m
Data from the previous 72 hours. | See also: Recent months at Gelantipy
Date/Time
EDT
Temp
°C
App
Temp
°C
Dew
Point
Rel
Hum
%
Delta-T
°C
Wind Press
QNH
hPa
Press
MSL
hPa
Rain
since 9 am
mm
Dir
 
Spd
km/h
Gust
km/h
Spd
kts
Gust
kts
01/02:00pm 22.3 20.2 11.1 49 6.4 NE 13 17 7 9 1019.3 1018.4 0.0
01/01:30pm 22.6 20.4 10.7 47 6.8 ENE 13 19 7 10 1019.7 1018.9 0.0
01/01:00pm 22.0 19.2 9.9 46 6.8 NE 15 20 8 11 1020.5 1019.6 0.0
01/12:30pm 21.5 18.6 9.7 47 6.6 NE 15 20 8 11 1021.0 1020.2 0.0
01/12:00pm 20.5 17.9 10.6 53 5.6 NNE 15 20 8 11 1021.6 1020.7 0.0
01/11:30am 18.7 15.4 9.5 55 5.0 NNE 17 24 9 13 1022.0 1021.2 0.0
01/11:00am 17.8 13.4 8.9 56 4.8 NNE 22 28 12 15 1022.4 1021.6 0.0
01/10:30am 17.8 14.1 9.4 58 4.6 NNE 19 22 10 12 1022.9 1020.9 0.0
01/10:00am 16.2 12.3 9.4 64 3.7 NNE 20 28 11 15 1023.3 1021.4 0.0
01/09:30am 15.5 11.6 9.6 68 3.2 NNE 20 26 11 14 1023.3 1021.4 0.0
01/09:00am 14.5 11.8 8.9 69 2.9 NNE 13 20 7 11 1023.5 1021.6 0.0
01/08:30am 13.0 11.5 8.3 73 2.4 NNE 6 11 3 6 1023.5 1021.6 0.0
01/08:00am 12.6 9.1 8.7 77 2.0 N 17 20 9 11 1023.4 1021.5 0.0
01/07:30am 11.8 6.8 8.1 78 1.9 N 24 28 13 15 1023.2 1021.3 0.0
01/07:00am 11.5 6.5 8.2 80 1.7 N 24 28 13 15 1023.2 1021.3 0.0
01/06:30am 11.5 6.5 8.0 79 1.8 N 24 28 13 15 1022.9 1020.9 0.0
01/06:00am 11.3 6.9 7.4 77 2.0 N 20 24 11 13 1022.9 1020.9 0.0
01/05:30am 10.7 8.3 7.2 79 1.7 NNE 9 17 5 9 1023.0 1021.1 0.0
01/05:00am 11.3 7.6 7.8 79 1.8 NNE 17 20 9 11 1023.2 1021.3 0.0
01/04:30am 10.9 7.0 7.2 78 1.8 NNE 17 20 9 11 1023.3 1021.4 0.0
01/04:00am 11.5 7.2 7.0 74 2.2 NNE 19 22 10 12 1023.3 1021.4 0.0
01/03:30am 12.1 7.7 7.4 73 2.4 NNE 20 24 11 13 1023.5 1021.6 0.0
01/03:00am 12.0 7.7 7.9 76 2.1 NNE 20 24 11 13 1024.1 1022.2 0.0
01/02:30am 12.6 8.5 7.9 73 2.4 NNE 19 24 10 13 1024.3 1022.4 0.0
01/02:00am 13.3 9.1 8.2 71 2.6 NNE 20 26 11 14 1024.6 1022.7 0.0
01/01:30am 13.1 9.0 8.0 71 2.6 NNE 19 24 10 13 1024.8 1022.9 0.0
01/01:00am 13.7 9.3 7.2 65 3.3 N 20 24 11 13 1025.0 1023.1 0.0
01/12:30am 13.3 9.4 7.1 66 3.1 N 17 19 9 10 1025.0 1023.1 0.0
01/12:00am 13.8 9.3 8.6 71 2.7 N 22 26 12 14 1025.0 1023.1 0.0
 
Date/Time
EDT
Temp
°C
App
Temp
°C
Dew
Point
Rel
Hum
%
Delta-T
°C
Wind Press
QNH
hPa
Press
MSL
hPa
Rain
since 9 am
mm
Dir
 
Spd
km/h
Gust
km/h
Spd
kts
Gust
kts
31/11:30pm 13.4 9.7 8.0 70 2.8 N 17 20 9 11 1025.2 1023.4 0.0
31/11:00pm 13.6 10.2 9.3 75 2.3 N 17 20 9 11 1025.3 1023.5 0.0
31/10:30pm 13.6 10.7 8.2 70 2.8 N 13 15 7 8 1025.4 1023.6 0.0
31/10:00pm 13.4 11.3 8.3 71 2.6 N 9 11 5 6 1025.2 1023.4 0.0
31/09:30pm 13.0 11.3 8.3 73 2.4 WNW 7 9 4 5 1025.2 1023.4 0.0
31/09:00pm 13.2 12.9 8.7 74 2.3 CALM 0 0 0 0 1025.0 1023.1 0.0
31/08:30pm 13.9 13.6 8.5 70 2.8 CALM 0 0 0 0 1024.9 1023.0 0.0
31/08:00pm 15.6 14.0 8.8 64 3.6 NNE 7 9 4 5 1024.8 1022.9 0.0
31/07:30pm 16.9 15.3 8.8 59 4.3 WNW 7 9 4 5 1024.8 1022.9 0.0
31/07:00pm 18.3 17.2 8.3 52 5.3 WSW 4 13 2 7 1024.7 1022.8 0.0
31/06:30pm 22.6 21.8 6.4 35 8.6 CALM 0 7 0 4 1024.4 1022.5 0.0
31/06:00pm 23.1 22.0 6.8 35 8.7 ENE 2 6 1 3 1023.9 1022.0 0.0
31/05:30pm 23.2 20.4 3.2 27 10.0 ENE 7 13 4 7 1023.8 1021.9 0.0
31/05:00pm 23.3 19.8 3.3 27 10.0 ENE 11 17 6 9 1024.1 1022.2 0.0
31/04:30pm 23.3 19.6 4.3 29 9.7 ENE 13 19 7 10 1024.1 1022.2 0.0
31/04:00pm 23.2 19.5 4.7 30 9.5 NE 13 19 7 10 1024.3 1022.4 0.0
31/03:30pm 23.3 19.4 5.2 31 9.4 ENE 15 22 8 12 1024.5 1022.6 0.0
31/03:00pm 22.9 18.6 5.3 32 9.1 NE 17 22 9 12 1024.8 1022.9 0.0
31/02:30pm 23.1 19.4 6.4 34 8.9 NE 15 24 8 13 1025.3 1023.5 0.0
31/02:00pm 22.3 17.7 3.9 30 9.2 NE 17 28 9 15 1026.0 1024.1 0.0
31/01:30pm 21.5 17.0 4.1 32 8.8 NNE 17 22 9 12 1026.6 1024.8 0.0
31/01:00pm 21.4 17.0 4.5 33 8.5 NE 17 24 9 13 1026.8 1025.0 0.0
31/12:30pm 21.4 18.4 7.6 41 7.4 ENE 13 19 7 10 1027.4 1025.5 0.0
31/12:00pm 20.3 17.9 10.1 52 5.7 NE 13 19 7 10 1027.7 1025.9 0.0
31/11:30am 18.8 15.5 9.6 55 5.1 NNE 17 22 9 12 1028.0 1026.2 0.0
31/11:00am 17.4 13.7 9.6 60 4.2 NE 19 24 10 13 1028.1 1026.3 0.0
31/10:30am 16.5 12.9 9.9 65 3.6 NNE 19 24 10 13 1028.2 1026.4 0.0
31/10:00am 15.1 11.1 9.2 68 3.1 NNE 20 28 11 15 1027.9 1026.1 0.0
31/09:30am 13.9 10.1 9.7 76 2.2 NNE 20 24 11 13 1027.9 1026.1 0.0
31/09:00am 12.8 8.9 9.6 81 1.7 NNE 20 24 11 13 1027.7 1025.9 0.0
31/08:30am 11.5 8.8 9.1 85 1.3 N 13 17 7 9 1027.5 1025.6 0.0
31/08:00am 9.8 7.6 7.9 88 0.9 N 9 13 5 7 1027.2 1025.3 0.0
31/07:30am 8.4 6.0 6.9 90 0.7 N 9 11 5 6 1027.0 1025.1 0.0
31/07:00am 8.4 6.0 7.0 91 0.7 NNE 9 13 5 7 1026.7 1024.9 0.0
31/06:30am 9.0 6.7 7.5 90 0.7 NNE 9 11 5 6 1026.5 1024.7 0.0
31/06:00am 9.6 7.9 7.4 86 1.1 WNW 6 7 3 4 1026.4 1024.6 0.0
31/05:30am 9.4 6.3 7.2 86 1.1 N 13 17 7 9 1026.1 1024.2 0.0
31/05:00am 9.6 5.8 7.4 86 1.1 NNE 17 19 9 10 1025.8 1023.9 0.0
31/04:30am 9.6 5.7 7.2 85 1.2 NNE 17 19 9 10 1025.8 1023.9 0.0
31/04:00am 10.0 6.1 7.3 83 1.3 NNE 17 22 9 12 1025.9 1024.0 0.0
31/03:30am 10.8 6.8 8.2 84 1.3 NNE 19 22 10 12 1026.1 1024.2 0.0
31/03:00am 8.5 4.8 6.1 85 1.1 NNE 15 17 8 9 1026.3 1024.4 0.0
31/02:30am 7.6 4.2 5.7 88 0.9 N 13 13 7 7 1026.6 1024.8 0.0
31/02:00am 8.3 5.6 5.8 84 1.2 NNE 9 11 5 6 1027.1 1025.2 0.0
31/01:30am 8.6 6.4 6.1 84 1.2 NNE 7 9 4 5 1027.1 1025.2 0.0
31/01:00am 10.3 8.3 7.2 81 1.5 NNE 7 9 4 5 1027.2 1025.3 0.0
31/12:30am 10.9 9.3 8.1 83 1.4 NNE 6 7 3 4 1027.4 1025.5 0.0
31/12:00am 10.5 9.0 8.6 88 1.0 NNE 6 7 3 4 1027.4 1025.5 0.0
 
Date/Time
EDT
Temp
°C
App
Temp
°C
Dew
Point
Rel
Hum
%
Delta-T
°C
Wind Press
QNH
hPa
Press
MSL
hPa
Rain
since 9 am
mm
Dir
 
Spd
km/h
Gust
km/h
Spd
kts
Gust
kts
30/11:30pm 10.1 9.8 8.5 90 0.8 CALM 0 0 0 0 1027.6 1025.8 0.0
30/11:00pm 9.7 9.3 8.1 90 0.8 CALM 0 0 0 0 1027.7 1025.9 0.0
30/10:30pm 10.7 10.3 8.3 85 1.2 CALM 0 0 0 0 1027.6 1025.8 0.0
30/10:00pm 10.9 10.5 8.3 84 1.3 CALM 0 0 0 0 1027.6 1025.8 0.0
30/09:30pm 11.3 10.9 8.3 82 1.5 CALM 0 0 0 0 1027.5 1025.6 0.0
30/09:00pm 11.8 11.5 8.5 80 1.7 CALM 0 0 0 0 1027.3 1025.4 0.0
30/08:30pm 12.3 11.5 8.2 76 2.1 SW 2 6 1 3 1026.8 1025.0 0.0
30/08:00pm 12.5 10.8 8.2 75 2.2 SW 7 9 4 5 1026.5 1024.7 0.0
30/07:30pm 13.5 12.1 9.0 74 2.4 SW 6 9 3 5 1026.1 1024.2 0.0
30/07:00pm 15.4 13.6 9.5 68 3.2 SSW 9 15 5 8 1025.7 1023.8 0.0
30/06:30pm 17.4 15.8 10.1 62 4.0 S 9 17 5 9 1025.1 1023.2 0.0
30/06:00pm 18.7 16.4 8.9 53 5.3 SSE 11 19 6 10 1024.5 1022.6 0.0
30/05:30pm 19.7 17.5 7.8 46 6.4 S 9 17 5 9 1024.2 1022.3 0.0
30/05:00pm 20.0 17.5 8.0 46 6.4 SE 11 17 6 9 1023.9 1022.0 0.0
30/04:30pm 20.3 17.7 7.7 44 6.7 SSW 11 22 6 12 1023.7 1021.8 0.0
30/04:00pm 20.4 18.0 7.1 42 7.0 SSE 9 13 5 7 1023.7 1021.8 0.0
30/03:30pm 20.8 19.1 8.4 45 6.7 SSE 7 15 4 8 1023.7 1021.8 0.0
30/03:00pm 20.1 17.3 6.8 42 7.0 S 11 17 6 9 1023.7 1021.8 0.0
30/02:30pm 21.2 19.6 7.8 42 7.2 SSE 6 11 3 6 1023.7 1021.8 0.0
30/02:00pm 20.3 17.8 6.6 41 7.1 E 9 17 5 9 1023.9 1022.0 0.0
30/01:30pm 20.4 18.1 7.4 43 6.9 ESE 9 13 5 7 1024.3 1022.4 0.0
30/01:00pm 19.5 15.9 5.2 39 7.2 NE 13 19 7 10 1024.5 1022.6 0.0
30/12:30pm 19.2 15.7 7.0 45 6.4 NE 15 20 8 11 1024.8 1022.9 0.0
30/12:00pm 18.2 14.0 5.8 44 6.3 NE 17 24 9 13 1025.1 1023.2 0.0
30/11:30am 17.9 13.8 6.4 47 5.9 NE 17 22 9 12 1025.4 1023.6 0.0
30/11:00am 16.9 13.2 8.1 56 4.6 NNE 17 20 9 11 1025.7 1023.8 0.0
30/10:30am 15.5 11.8 8.0 61 3.9 NNE 17 20 9 11 1025.9 1024.0 0.0
30/10:00am 14.1 10.0 7.9 66 3.2 NNE 19 22 10 12 1025.7 1023.8 0.0
30/09:30am 12.8 8.7 7.9 72 2.5 NNE 19 24 10 13 1025.6 1023.7 0.0
30/09:00am 11.4 8.3 7.3 76 2.0 NNE 13 17 7 9 1025.3 1023.5 0.0
30/08:30am 10.4 6.7 6.4 76 2.0 NNE 15 19 8 10 1025.1 1023.2 0.0
30/08:00am 8.8 5.8 5.9 82 1.4 NNE 11 17 6 9 1024.8 1022.9 0.0
30/07:30am 8.6 4.7 5.5 81 1.5 NNE 15 20 8 11 1024.4 1022.5 0.0
30/07:00am 8.7 4.6 6.0 83 1.3 NNE 17 20 9 11 1024.2 1022.3 0.0
30/06:30am 8.7 4.6 6.0 83 1.3 NNE 17 20 9 11 1023.8 1021.9 0.0
30/06:00am 9.1 4.9 5.8 80 1.6 NNE 17 20 9 11 1023.7 1021.8 0.0
30/05:30am 9.2 5.6 6.6 84 1.3 N 15 20 8 11 1023.5 1021.6 0.0
30/05:00am 9.7 6.1 6.8 82 1.4 N 15 19 8 10 1023.3 1021.4 0.0
30/04:30am 9.6 6.4 7.0 84 1.3 NNE 13 19 7 10 1023.3 1021.4 0.0
30/04:00am 9.1 6.4 7.2 88 0.9 NNE 11 15 6 8 1023.5 1021.6 0.0
30/03:30am 8.5 7.3 6.3 86 1.1 NNE 2 9 1 5 1023.6 1021.7 0.0
30/03:00am 8.9 6.8 6.5 85 1.2 NNE 7 13 4 7 1023.8 1021.9 0.0
30/02:30am 8.6 6.1 6.4 86 1.1 N 9 11 5 6 1024.2 1022.3 0.0
30/02:00am 7.5 4.4 5.6 88 0.9 N 11 13 6 7 1024.3 1022.4 0.0
30/01:30am 7.6 4.8 5.1 84 1.2 N 9 15 5 8 1024.4 1022.5 0.0
30/01:00am 7.9 5.8 6.7 92 0.6 NNE 7 9 4 5 1024.4 1022.5 0.0
30/12:30am 7.6 5.4 6.1 90 0.7 NE 7 9 4 5 1024.4 1022.5 0.0
30/12:00am 7.3 6.4 6.1 92 0.6 CALM 0 0 0 0 1024.6 1022.7 0.0
 
Date/Time
EDT
Temp
°C
App
Temp
°C
Dew
Point
Rel
Hum
%
Delta-T
°C
Wind Press
QNH
hPa
Press
MSL
hPa
Rain
since 9 am
mm
Dir
 
Spd
km/h
Gust
km/h
Spd
kts
Gust
kts
29/11:30pm 7.1 6.0 5.3 88 0.8 CALM 0 6 0 3 1024.8 1022.9 0.0
29/11:00pm 8.6 8.0 7.2 91 0.7 CALM 0 0 0 0 1024.8 1022.9 0.0
29/10:30pm 9.1 8.5 7.4 89 0.8 CALM 0 0 0 0 1024.9 1023.0 0.0
29/10:00pm 9.5 8.8 6.9 84 1.3 CALM 0 0 0 0 1024.7 1022.8 0.0
29/09:30pm 9.9 8.5 7.3 84 1.3 ENE 4 9 2 5 1024.4 1022.5 0.0
29/09:00pm 10.2 8.9 7.6 84 1.3 ENE 4 7 2 4 1024.2 1022.3 0.0
29/08:30pm 10.8 8.5 7.5 80 1.7 W 9 11 5 6 1023.8 1021.9 0.0
29/08:00pm 11.7 9.5 7.8 77 2.0 WSW 9 13 5 7 1023.3 1021.4 0.0
29/07:30pm 12.7 10.7 8.6 76 2.1 SW 9 15 5 8 1022.9 1020.9 0.0
29/07:00pm 14.6 12.4 9.2 70 2.9 SSW 11 17 6 9 1022.3 1020.4 0.0
29/06:30pm 17.1 15.1 8.8 58 4.4 SW 9 17 5 9 1021.6 1019.6 0.0
29/06:00pm 18.3 16.0 7.4 49 5.7 S 9 15 5 8 1021.3 1019.3 0.0
29/05:30pm 18.9 16.7 7.7 48 5.9 S 9 17 5 9 1021.0 1019.1 0.0
29/05:00pm 19.5 17.6 6.9 44 6.6 SSW 6 13 3 7 1020.9 1019.0 0.0
29/04:30pm 19.3 16.7 7.7 47 6.2 SSW 11 15 6 8 1020.9 1019.0 0.0
29/04:00pm 19.4 16.9 6.5 43 6.7 ESE 9 15 5 8 1021.0 1019.1 0.0
29/03:30pm 19.7 17.5 7.8 46 6.4 SE 9 13 5 7 1021.3 1019.3 0.0
29/03:00pm 19.6 17.8 8.0 47 6.2 SSE 7 13 4 7 1021.4 1019.4 0.0
29/02:30pm 18.9 16.0 6.7 45 6.3 S 11 17 6 9 1021.7 1019.7 0.0

Other Formats:

Comma delimited format used in spreadsheet applications
http://www.bom.gov.au/fwo/IDV60801/IDV60801.94913.axf

JavaScript Object Notation format (JSON) in row-major order
http://www.bom.gov.au/fwo/IDV60801/IDV60801.94913.json